Time;durP1;ratioP1;P1;durP2;ratioP2;P2;SDS_P1;SDS_P2;PMS_P1;PMS_P2;Temp;Humidity;BMP_temperature;BMP_pressure;BME280_temperature;BME280_humidity;BME280_pressure;Samples;Min_cycle;Max_cycle;Signal;HPM_P1;HPM_P2
2021/09/06 00:00:28;;;;;;;15.88;8.93;;;;;;;9.76;100.00;101388.53;5055969;28;20031;-87
2021/09/06 00:02:54;;;;;;;15.95;8.27;;;;;;;9.84;100.00;101385.91;5073825;28;20059;-87
2021/09/06 00:05:20;;;;;;;17.45;8.43;;;;;;;9.84;100.00;101388.50;5073858;28;20103;-87
2021/09/06 00:07:47;;;;;;;16.10;8.77;;;;;;;9.87;100.00;101389.34;5055846;28;20369;-88
2021/09/06 00:10:34;;;;;;;14.95;8.50;;;;;;;9.83;100.00;101385.03;5055921;28;20028;-87
2021/09/06 00:13:01;;;;;;;16.80;8.57;;;;;;;9.74;100.00;101381.63;5056661;28;20017;-87
2021/09/06 00:15:27;;;;;;;14.52;8.77;;;;;;;9.72;100.00;101385.91;5073413;28;20059;-88
2021/09/06 00:17:52;;;;;;;19.08;9.07;;;;;;;9.69;100.00;101384.19;5073617;28;20441;-87
2021/09/06 00:20:18;;;;;;;16.65;9.05;;;;;;;9.68;100.00;101383.34;5055714;28;20024;-87
2021/09/06 00:22:43;;;;;;;16.17;9.02;;;;;;;9.73;100.00;101375.56;5055786;28;20115;-87
2021/09/06 00:25:08;;;;;;;16.63;8.60;;;;;;;9.65;100.00;101374.72;5055589;28;20086;-88
2021/09/06 00:27:34;;;;;;;14.93;9.00;;;;;;;9.61;100.00;101379.03;5055351;28;20116;-88
2021/09/06 00:29:59;;;;;;;15.15;9.02;;;;;;;9.59;100.00;101374.72;5055568;28;20036;-87
2021/09/06 00:32:24;;;;;;;15.73;8.65;;;;;;;9.58;100.00;101378.19;5055511;28;20470;-87
2021/09/06 00:34:50;;;;;;;15.93;9.13;;;;;;;9.62;100.00;101372.13;5073437;28;20078;-87
2021/09/06 00:37:15;;;;;;;16.83;9.30;;;;;;;9.69;100.00;101379.00;5073322;28;20108;-87
2021/09/06 00:39:40;;;;;;;18.95;8.68;;;;;;;9.71;100.00;101369.53;5055457;28;20028;-87
2021/09/06 00:42:05;;;;;;;16.45;9.57;;;;;;;9.66;100.00;101364.34;5055455;28;20073;-88
2021/09/06 00:44:31;;;;;;;17.25;9.25;;;;;;;9.57;100.00;101364.34;5055413;28;20029;-88
2021/09/06 00:49:22;;;;;;;14.38;8.57;;;;;;;9.61;100.00;101365.22;5132471;22;20048;-80
2021/09/06 00:51:47;;;;;;;18.63;9.57;;;;;;;9.72;100.00;101365.19;5109856;28;20020;-80
2021/09/06 00:54:14;;;;;;;16.30;9.18;;;;;;;9.60;100.00;101368.66;5091261;28;20024;-80
2021/09/06 00:56:40;;;;;;;19.40;9.70;;;;;;;9.56;100.00;101372.13;5108384;28;20114;-80
2021/09/06 00:59:05;;;;;;;13.85;8.45;;;;;;;9.56;100.00;101373.00;5108993;28;20028;-80
2021/09/06 01:01:30;;;;;;;16.02;8.82;;;;;;;9.53;100.00;101378.16;5109111;28;20028;-80
2021/09/06 01:03:56;;;;;;;16.23;9.57;;;;;;;9.44;100.00;101373.84;5112610;28;20083;-80
2021/09/06 01:06:21;;;;;;;14.90;9.23;;;;;;;9.33;100.00;101375.59;5113267;28;20032;-80
2021/09/06 01:08:46;;;;;;;15.02;8.93;;;;;;;9.30;100.00;101365.25;5094679;28;20041;-80
2021/09/06 01:11:12;;;;;;;16.00;9.32;;;;;;;9.39;100.00;101373.03;5102675;28;20005;-80
2021/09/06 01:13:37;;;;;;;13.95;8.55;;;;;;;9.43;100.00;101387.69;5110166;28;20024;-80
2021/09/06 01:16:03;;;;;;;16.05;9.20;;;;;;;9.32;100.00;101376.44;5090164;28;20490;-80
2021/09/06 01:18:28;;;;;;;16.33;8.90;;;;;;;9.32;100.00;101379.03;5090710;28;20044;-80
2021/09/06 01:20:53;;;;;;;17.90;9.30;;;;;;;9.29;100.00;101373.00;5090943;28;20526;-80
2021/09/06 01:23:18;;;;;;;16.60;8.98;;;;;;;9.28;100.00;101386.81;5090701;28;20085;-80
2021/09/06 01:25:48;;;;;;;15.43;8.50;;;;;;;9.30;100.00;101380.78;5091479;28;20024;-81
2021/09/06 01:28:13;;;;;;;20.08;10.05;;;;;;;9.31;100.00;101379.91;5091799;28;20028;-80
2021/09/06 01:30:40;;;;;;;15.90;9.10;;;;;;;9.31;100.00;101376.47;5090545;28;20111;-81
2021/09/06 01:33:05;;;;;;;16.48;9.98;;;;;;;9.35;100.00;101384.22;5107708;28;20020;-80
2021/09/06 01:35:30;;;;;;;16.58;10.40;;;;;;;9.32;100.00;101368.69;5099811;28;20024;-80
2021/09/06 01:37:56;;;;;;;18.92;10.48;;;;;;;9.39;100.00;101365.25;5098897;28;20107;-81
2021/09/06 01:40:22;;;;;;;20.38;10.20;;;;;;;9.36;100.00;101370.44;5099124;28;20028;-80
2021/09/06 01:42:48;;;;;;;16.77;10.35;;;;;;;9.29;100.00;101368.69;5098906;28;20102;-80
2021/09/06 01:45:13;;;;;;;19.48;9.85;;;;;;;9.27;100.00;101370.44;5099266;28;20059;-80
2021/09/06 01:47:38;;;;;;;16.30;9.55;;;;;;;9.23;100.00;101363.50;5099734;28;20059;-80
2021/09/06 01:50:04;;;;;;;16.77;9.95;;;;;;;9.21;100.00;101354.91;5099225;28;20035;-80
2021/09/06 01:52:29;;;;;;;17.38;9.18;;;;;;;9.20;100.00;101356.59;5081797;28;20016;-80
2021/09/06 01:54:54;;;;;;;15.77;10.25;;;;;;;9.19;100.00;101360.06;5100261;28;20020;-80
2021/09/06 01:57:20;;;;;;;17.75;10.60;;;;;;;9.22;100.00;101365.22;5082124;28;20077;-80
2021/09/06 01:59:45;;;;;;;16.40;10.02;;;;;;;9.28;100.00;101368.69;5082202;28;20020;-80
2021/09/06 02:02:10;;;;;;;18.48;10.50;;;;;;;9.19;100.00;101359.19;5081439;28;20063;-80
2021/09/06 02:04:35;;;;;;;17.30;10.23;;;;;;;9.14;100.00;101356.63;5100501;28;20387;-80
2021/09/06 02:07:01;;;;;;;16.60;9.75;;;;;;;9.22;100.00;101361.78;5100599;28;20506;-80
2021/09/06 02:09:26;;;;;;;17.10;9.88;;;;;;;9.20;100.00;101358.31;5082898;28;20024;-80
2021/09/06 02:11:51;;;;;;;20.80;11.20;;;;;;;9.28;100.00;101354.03;5082744;28;20020;-81
2021/09/06 02:14:17;;;;;;;17.48;10.70;;;;;;;9.36;100.00;101354.00;5082112;28;20016;-81
2021/09/06 02:16:42;;;;;;;19.65;11.35;;;;;;;9.25;100.00;101360.94;5101693;28;20031;-81
2021/09/06 02:19:07;;;;;;;17.50;10.32;;;;;;;9.27;100.00;101359.19;5083289;28;20516;-81
2021/09/06 02:21:32;;;;;;;21.00;9.57;;;;;;;9.31;100.00;101359.19;5101222;28;20028;-81
2021/09/06 02:24:01;;;;;;;18.20;11.15;;;;;;;9.23;100.00;101363.50;5102612;28;20039;-80
2021/09/06 02:26:27;;;;;;;20.63;10.27;;;;;;;9.25;100.00;101360.94;5102339;28;20027;-80
2021/09/06 02:28:52;;;;;;;17.98;10.10;;;;;;;9.22;100.00;101356.59;5103793;28;20024;-80
2021/09/06 02:31:18;;;;;;;19.27;10.77;;;;;;;9.18;100.00;101360.06;5103652;28;20140;-80
2021/09/06 02:33:43;;;;;;;20.35;10.95;;;;;;;9.13;100.00;101359.19;5104033;28;20028;-79
2021/09/06 02:36:08;;;;;;;24.98;11.40;;;;;;;9.04;100.00;101366.94;5104416;28;20055;-80
2021/09/06 02:38:33;;;;;;;19.42;11.05;;;;;;;9.05;100.00;101379.00;5103585;28;20028;-80
2021/09/06 02:40:59;;;;;;;18.60;10.38;;;;;;;9.02;100.00;101377.31;5085652;28;20035;-80
2021/09/06 02:43:24;;;;;;;18.92;10.10;;;;;;;8.96;100.00;101380.75;5103667;28;20387;-80
2021/09/06 02:45:49;;;;;;;18.70;10.05;;;;;;;8.95;100.00;101372.97;5106753;28;20024;-80
2021/09/06 02:48:14;;;;;;;19.83;10.73;;;;;;;8.94;100.00;101372.09;5103019;28;20122;-80
2021/09/06 02:50:40;;;;;;;20.00;9.85;;;;;;;8.91;100.00;101379.88;5103000;28;20480;-80
2021/09/06 02:53:05;;;;;;;18.73;10.07;;;;;;;8.91;100.00;101381.59;5103133;28;20031;-80
2021/09/06 02:55:30;;;;;;;18.83;10.23;;;;;;;8.97;100.00;101381.59;5103386;28;20032;-80
2021/09/06 02:57:55;;;;;;;15.70;9.90;;;;;;;8.97;100.00;101372.13;5085185;28;20081;-80
2021/09/06 03:00:21;;;;;;;16.95;9.88;;;;;;;8.99;100.00;101370.41;5104402;28;20051;-80
2021/09/06 03:02:46;;;;;;;19.50;10.63;;;;;;;9.05;100.00;101369.56;5085254;28;20023;-80
2021/09/06 03:05:11;;;;;;;21.17;11.60;;;;;;;9.02;100.00;101369.56;5085731;28;20037;-80
2021/09/06 03:07:37;;;;;;;17.40;10.68;;;;;;;9.04;100.00;101372.97;5084873;28;20027;-80
2021/09/06 03:10:03;;;;;;;19.73;10.90;;;;;;;9.05;100.00;101371.25;5102844;28;20032;-80
2021/09/06 03:12:28;;;;;;;17.05;10.50;;;;;;;9.01;100.00;101367.81;5085196;28;20032;-80
2021/09/06 03:14:53;;;;;;;18.92;10.43;;;;;;;8.95;100.00;101368.66;5103815;28;20020;-80
2021/09/06 03:17:18;;;;;;;20.48;10.55;;;;;;;9.09;100.00;101360.91;5104205;28;20024;-80
2021/09/06 03:19:44;;;;;;;25.38;10.82;;;;;;;9.05;100.00;101366.97;5086165;28;20041;-80
2021/09/06 03:22:09;;;;;;;19.83;11.38;;;;;;;9.06;100.00;101366.09;5105157;28;20021;-80
2021/09/06 03:24:34;;;;;;;22.33;12.27;;;;;;;9.09;100.00;101362.66;5104582;28;20020;-80
2021/09/06 03:27:00;;;;;;;20.17;11.82;;;;;;;9.05;100.00;101366.97;5104353;28;20031;-80
2021/09/06 03:29:25;;;;;;;17.38;10.15;;;;;;;9.04;100.00;101365.22;5105112;28;20023;-80
2021/09/06 03:31:50;;;;;;;18.80;10.63;;;;;;;9.15;100.00;101363.50;5104853;28;20060;-80
2021/09/06 03:34:15;;;;;;;20.85;10.52;;;;;;;9.12;100.00;101360.91;5105098;28;20028;-80
2021/09/06 03:36:41;;;;;;;20.25;11.00;;;;;;;9.06;100.00;101357.47;5087173;28;20497;-81
2021/09/06 03:39:06;;;;;;;21.20;11.48;;;;;;;9.04;100.00;101351.44;5105241;28;20035;-81
2021/09/06 03:41:33;;;;;;;18.48;10.13;;;;;;;9.06;100.00;101352.31;5086658;28;20115;-81
2021/09/06 03:43:58;;;;;;;22.52;11.13;;;;;;;9.06;100.00;101355.75;5086966;28;20023;-81
2021/09/06 03:46:23;;;;;;;21.52;10.30;;;;;;;9.04;100.00;101344.53;5105199;28;20050;-80
2021/09/06 03:48:49;;;;;;;18.45;10.43;;;;;;;8.97;100.00;101343.66;5105496;28;20036;-80
2021/09/06 03:51:14;;;;;;;17.00;10.23;;;;;;;8.96;100.00;101352.28;5105472;28;20491;-80
2021/09/06 03:53:39;;;;;;;17.73;9.10;;;;;;;8.99;100.00;101339.34;5103717;28;20067;-80
2021/09/06 03:56:04;;;;;;;17.30;9.73;;;;;;;8.99;100.00;101344.53;5086610;28;20031;-80
2021/09/06 03:58:30;;;;;;;18.77;10.23;;;;;;;8.94;100.00;101341.06;5085637;28;20023;-80
2021/09/06 04:00:55;;;;;;;19.67;10.88;;;;;;;8.92;100.00;101344.50;5086555;28;20027;-80
2021/09/06 04:03:20;;;;;;;17.60;10.02;;;;;;;8.89;100.00;101358.28;5086538;28;20023;-80
2021/09/06 04:05:45;;;;;;;18.27;10.50;;;;;;;8.89;100.00;101350.53;5105294;28;20024;-80
2021/09/06 04:08:11;;;;;;;17.50;10.30;;;;;;;8.90;100.00;101356.59;5105474;28;20024;-81
2021/09/06 04:10:36;;;;;;;15.13;9.55;;;;;;;8.89;100.00;101360.88;5105969;28;20107;-81
2021/09/06 04:13:01;;;;;;;16.85;10.45;;;;;;;8.96;100.00;101359.19;5087025;28;20031;-81
2021/09/06 04:15:27;;;;;;;20.63;10.90;;;;;;;8.92;100.00;101353.13;5105093;28;20047;-81
2021/09/06 04:17:52;;;;;;;20.27;10.50;;;;;;;8.88;100.00;101356.56;5106135;28;20043;-80
2021/09/06 04:20:17;;;;;;;19.15;10.60;;;;;;;8.94;100.00;101356.59;5088016;28;20073;-80
2021/09/06 04:22:43;;;;;;;17.15;10.32;;;;;;;8.90;100.00;101354.00;5104111;28;20031;-80
2021/09/06 04:25:09;;;;;;;18.35;11.07;;;;;;;8.84;100.00;101360.03;5105046;28;20023;-80
2021/09/06 04:27:34;;;;;;;17.05;10.75;;;;;;;8.91;100.00;101358.31;5086547;28;20027;-80
2021/09/06 04:30:00;;;;;;;22.65;11.38;;;;;;;8.89;100.00;101360.88;5105512;28;20028;-80
2021/09/06 04:32:25;;;;;;;18.98;11.18;;;;;;;8.88;100.00;101355.72;5086538;28;20020;-80
2021/09/06 04:34:50;;;;;;;23.20;10.70;;;;;;;8.90;100.00;101348.84;5086469;28;20027;-80
2021/09/06 04:37:15;;;;;;;19.15;10.70;;;;;;;8.84;100.00;101361.75;5086171;28;20466;-80
2021/09/06 04:39:41;;;;;;;22.15;11.65;;;;;;;8.84;100.00;101362.63;5085350;28;20036;-80
2021/09/06 04:42:06;;;;;;;20.30;10.93;;;;;;;8.86;100.00;101362.59;5104125;28;20020;-80
2021/09/06 04:44:31;;;;;;;20.60;11.23;;;;;;;8.94;100.00;101369.53;5103692;28;20076;-80
2021/09/06 04:46:57;;;;;;;18.00;10.43;;;;;;;8.92;100.00;101368.66;5105171;28;20024;-80
2021/09/06 04:49:22;;;;;;;20.92;10.52;;;;;;;8.93;100.00;101367.81;5101697;28;20043;-80
2021/09/06 04:51:47;;;;;;;20.67;10.35;;;;;;;9.02;100.00;101368.66;5101286;28;20024;-80
2021/09/06 04:54:13;;;;;;;18.65;10.65;;;;;;;9.08;100.00;101366.06;5100272;28;20548;-80
2021/09/06 04:56:38;;;;;;;16.98;10.25;;;;;;;9.10;100.00;101365.22;5081703;28;20020;-80
2021/09/06 04:59:04;;;;;;;17.92;10.57;;;;;;;9.15;100.00;101373.88;5081056;28;20110;-80
2021/09/06 05:01:29;;;;;;;19.45;11.13;;;;;;;9.23;100.00;101379.03;5099718;28;20045;-80
2021/09/06 05:03:54;;;;;;;22.92;12.18;;;;;;;9.28;100.00;101381.63;5080718;28;20047;-80
2021/09/06 05:06:20;;;;;;;20.42;10.82;;;;;;;9.24;100.00;101380.78;5099822;28;20069;-80
2021/09/06 05:08:45;;;;;;;20.33;10.50;;;;;;;9.23;100.00;101385.06;5080615;28;20031;-80
2021/09/06 05:11:10;;;;;;;24.45;11.30;;;;;;;9.25;100.00;101381.63;5081147;28;20032;-80
2021/09/06 05:13:36;;;;;;;19.02;10.77;;;;;;;9.27;100.00;101385.97;5099625;28;20016;-80
2021/09/06 05:16:01;;;;;;;20.25;11.00;;;;;;;9.31;100.00;101379.06;5101378;28;20107;-80
2021/09/06 05:18:26;;;;;;;18.30;10.60;;;;;;;9.34;100.00;101381.63;5080697;28;20020;-80
2021/09/06 05:20:51;;;;;;;17.15;10.00;;;;;;;9.33;100.00;101385.97;5097527;28;20039;-80
2021/09/06 05:23:17;;;;;;;19.90;10.65;;;;;;;9.31;100.00;101384.22;5078418;28;20024;-81
2021/09/06 05:25:42;;;;;;;23.10;10.45;;;;;;;9.47;100.00;101395.44;5101640;28;20027;-80
2021/09/06 05:28:08;;;;;;;23.35;11.13;;;;;;;9.55;100.00;101393.72;5083150;28;20027;-80
2021/09/06 05:30:34;;;;;;;19.92;11.32;;;;;;;9.59;100.00;101392.84;5081917;28;20027;-80
2021/09/06 05:32:59;;;;;;;18.52;11.43;;;;;;;9.63;100.00;101392.81;5082250;28;20024;-80
2021/09/06 05:35:25;;;;;;;21.10;11.50;;;;;;;9.74;100.00;101392.84;5101017;28;20020;-80
2021/09/06 05:37:50;;;;;;;19.27;10.38;;;;;;;9.80;100.00;101392.81;5101561;28;20048;-80
2021/09/06 05:40:15;;;;;;;21.60;11.55;;;;;;;9.76;100.00;101403.19;5103691;28;20048;-79
2021/09/06 05:42:41;;;;;;;20.15;11.43;;;;;;;9.86;100.00;101392.81;5085593;28;20372;-79
2021/09/06 05:45:07;;;;;;;20.45;11.10;;;;;;;10.01;100.00;101404.03;5085099;28;20028;-79
2021/09/06 05:47:32;;;;;;;20.33;11.30;;;;;;;10.07;100.00;101396.22;5100825;28;20028;-79
2021/09/06 05:49:57;;;;;;;17.92;11.07;;;;;;;10.11;100.00;101403.97;5105875;28;20031;-79
2021/09/06 05:52:23;;;;;;;20.45;10.75;;;;;;;10.26;100.00;101403.13;5089175;28;20028;-79
2021/09/06 05:54:48;;;;;;;20.88;12.25;;;;;;;10.40;100.00;101407.38;5086250;28;20476;-80
2021/09/06 05:57:14;;;;;;;19.05;10.95;;;;;;;10.71;100.00;101410.69;5103154;28;20020;-81
2021/09/06 05:59:39;;;;;;;22.15;12.32;;;;;;;11.11;100.00;101402.66;5082766;28;20069;-81
2021/09/06 06:02:05;;;;;;;19.90;11.82;;;;;;;11.54;100.00;101403.19;5083464;28;20065;-81
2021/09/06 06:04:30;;;;;;;21.65;11.82;;;;;;;11.95;100.00;101404.59;5082447;28;20030;-80
2021/09/06 06:06:55;;;;;;;24.50;11.55;;;;;;;12.65;100.00;101406.38;5082509;28;20028;-81
2021/09/06 06:09:21;;;;;;;18.98;11.15;;;;;;;13.25;100.00;101407.28;5100720;28;20024;-82
2021/09/06 06:11:46;;;;;;;20.30;11.82;;;;;;;13.40;100.00;101407.03;5100924;28;20093;-81
2021/09/06 06:14:12;;;;;;;23.13;11.25;;;;;;;13.82;100.00;101404.56;5082016;28;20028;-81
2021/09/06 06:16:37;;;;;;;22.67;12.00;;;;;;;14.03;100.00;101409.38;5101338;28;20031;-80
2021/09/06 06:19:03;;;;;;;20.70;11.95;;;;;;;14.32;100.00;101400.16;5102249;28;20092;-80
2021/09/06 06:21:29;;;;;;;23.05;12.25;;;;;;;14.65;100.00;101397.75;5103520;28;20028;-80
2021/09/06 06:23:55;;;;;;;23.02;12.50;;;;;;;15.07;100.00;101395.91;5100639;28;20065;-81
2021/09/06 06:26:20;;;;;;;22.85;11.85;;;;;;;14.97;100.00;101397.03;5100123;28;20503;-81
2021/09/06 06:28:45;;;;;;;17.75;10.85;;;;;;;15.46;100.00;101398.47;5099143;28;20082;-81
2021/09/06 06:31:11;;;;;;;17.95;10.80;;;;;;;16.06;100.00;101405.63;5081552;28;20099;-81
2021/09/06 06:33:36;;;;;;;17.95;10.82;;;;;;;16.27;100.00;101409.41;5099824;28;20031;-81
2021/09/06 06:36:03;;;;;;;16.00;10.52;;;;;;;15.91;100.00;101399.97;5099998;28;20016;-81
2021/09/06 06:38:29;;;;;;;24.05;11.40;;;;;;;15.98;100.00;101407.63;5081084;28;20365;-81
2021/09/06 06:40:55;;;;;;;19.73;10.95;;;;;;;16.56;100.00;101405.97;5080182;28;20027;-81
2021/09/06 06:43:20;;;;;;;20.10;10.43;;;;;;;16.36;100.00;101412.69;5098645;28;20063;-81
2021/09/06 06:45:46;;;;;;;18.00;10.85;;;;;;;16.53;100.00;101405.19;5098658;28;20016;-81
2021/09/06 06:48:11;;;;;;;16.00;9.98;;;;;;;17.35;100.00;101406.19;5122117;22;20044;-88
2021/09/06 06:50:37;;;;;;;18.30;10.27;;;;;;;17.23;100.00;101410.06;5077345;28;20016;-89
2021/09/06 06:53:02;;;;;;;18.95;10.07;;;;;;;17.24;100.00;101412.63;5095515;28;20031;-89
2021/09/06 06:55:27;;;;;;;17.92;10.30;;;;;;;17.17;100.00;101405.84;5095506;28;20074;-89
2021/09/06 06:57:53;;;;;;;18.63;10.00;;;;;;;16.62;100.00;101409.28;5077340;28;20024;-89
2021/09/06 07:00:18;;;;;;;20.70;10.77;;;;;;;17.56;100.00;101405.47;5076182;28;20077;-88
2021/09/06 07:02:43;;;;;;;15.57;9.32;;;;;;;17.30;100.00;101402.84;5077218;28;20072;-88
2021/09/06 07:05:10;;;;;;;17.58;10.82;;;;;;;17.56;100.00;101405.47;5077061;28;20042;-88
2021/09/06 07:07:35;;;;;;;16.40;9.98;;;;;;;17.58;100.00;101403.66;5077040;28;20399;-88
2021/09/06 07:10:01;;;;;;;14.55;9.77;;;;;;;18.25;100.00;101396.97;5095009;28;20027;-88
2021/09/06 07:12:26;;;;;;;15.25;9.07;;;;;;;18.68;100.00;101409.34;5095438;28;20034;-89
2021/09/06 07:14:51;;;;;;;15.95;9.50;;;;;;;19.01;100.00;101404.56;5076885;28;20476;-89
2021/09/06 07:17:17;;;;;;;15.55;9.23;;;;;;;19.16;97.64;101404.88;5076970;28;20020;-89
2021/09/06 07:19:42;;;;;;;14.98;9.07;;;;;;;19.31;97.96;101401.63;5095059;28;20479;-89
2021/09/06 07:22:07;;;;;;;13.57;8.43;;;;;;;19.24;96.12;101406.28;5077316;28;20026;-88
2021/09/06 07:24:32;;;;;;;16.92;9.07;;;;;;;19.53;93.97;101402.44;5076608;28;20012;-87
2021/09/06 07:26:58;;;;;;;15.38;8.73;;;;;;;19.79;94.25;101405.75;5094983;28;20468;-88
2021/09/06 07:29:23;;;;;;;15.88;9.18;;;;;;;19.61;99.29;101406.50;5094671;28;20031;-86
2021/09/06 07:31:48;;;;;;;15.07;8.85;;;;;;;19.36;98.72;101406.69;5094580;28;20032;-86
2021/09/06 07:34:14;;;;;;;15.48;9.27;;;;;;;19.72;99.36;101414.84;5076390;28;20395;-86
2021/09/06 07:36:39;;;;;;;14.77;9.07;;;;;;;19.95;95.83;101416.47;5076351;28;20024;-86
2021/09/06 07:39:04;;;;;;;14.27;8.93;;;;;;;20.05;97.44;101416.94;5076140;28;20031;-86
2021/09/06 07:41:30;;;;;;;17.73;9.10;;;;;;;20.42;94.32;101422.28;5076243;28;20499;-86
2021/09/06 07:43:55;;;;;;;15.45;9.73;;;;;;;19.88;95.83;101420.31;5094277;28;20307;-87
2021/09/06 07:46:20;;;;;;;18.02;9.45;;;;;;;19.95;94.52;101417.34;5076520;28;20024;-87
2021/09/06 07:48:46;;;;;;;15.45;8.93;;;;;;;19.87;94.77;101413.34;5075903;28;20028;-87
2021/09/06 07:51:11;;;;;;;14.30;9.38;;;;;;;20.30;92.38;101420.19;5076814;28;20035;-87
2021/09/06 07:53:36;;;;;;;13.55;9.10;;;;;;;20.54;88.36;101414.78;5094161;28;20111;-87
2021/09/06 07:56:02;;;;;;;15.73;8.85;;;;;;;19.82;96.94;101410.03;5075905;28;20024;-87
2021/09/06 07:58:27;;;;;;;13.70;8.20;;;;;;;20.86;91.89;101419.38;5076129;28;20020;-87
2021/09/06 08:00:52;;;;;;;12.85;8.00;;;;;;;21.31;86.96;101422.50;5076396;28;20111;-86
2021/09/06 08:03:18;;;;;;;13.00;8.60;;;;;;;21.82;82.61;101426.97;5076076;28;20020;-86
2021/09/06 08:05:43;;;;;;;14.68;8.70;;;;;;;21.90;79.87;101425.75;5075847;28;20020;-86
2021/09/06 08:08:08;;;;;;;14.27;8.32;;;;;;;21.56;82.59;101427.47;5075682;28;20483;-86
2021/09/06 08:10:34;;;;;;;13.60;7.63;;;;;;;21.18;84.03;101435.44;5094179;28;20106;-86
2021/09/06 08:12:59;;;;;;;13.80;8.90;;;;;;;20.92;82.34;101440.19;5075494;28;20024;-86
2021/09/06 08:15:26;;;;;;;14.27;8.52;;;;;;;21.04;78.48;101440.53;5075843;28;20020;-86
2021/09/06 08:17:52;;;;;;;12.30;7.35;;;;;;;21.75;75.83;101435.28;5093801;28;20034;-87
2021/09/06 08:20:19;;;;;;;16.00;7.75;;;;;;;21.87;70.43;101439.94;5075579;28;20016;-87
2021/09/06 08:22:44;;;;;;;15.18;8.90;;;;;;;22.70;71.69;101439.06;5075748;28;20054;-87
2021/09/06 08:25:12;;;;;;;13.65;7.68;;;;;;;21.98;71.36;101444.66;5075531;28;20020;-87
2021/09/06 08:27:39;;;;;;;12.90;7.47;;;;;;;22.27;69.06;101449.31;5075623;28;20468;-87
2021/09/06 08:30:06;;;;;;;12.45;7.55;;;;;;;22.60;70.58;101456.38;5075700;28;20475;-87
2021/09/06 08:32:32;;;;;;;14.75;7.72;;;;;;;22.76;68.81;101453.75;5093565;28;20105;-87
2021/09/06 08:34:57;;;;;;;16.67;8.45;;;;;;;22.29;71.42;101452.75;5075433;28;20497;-87
2021/09/06 08:37:22;;;;;;;14.43;7.82;;;;;;;21.54;75.26;101451.28;5075528;28;20494;-87
2021/09/06 08:39:48;;;;;;;14.32;7.88;;;;;;;20.68;72.29;101459.78;5075348;28;20020;-87
2021/09/06 08:42:14;;;;;;;13.20;8.13;;;;;;;20.97;73.76;101454.91;5093717;28;20053;-87
2021/09/06 08:44:41;;;;;;;14.23;7.93;;;;;;;20.75;75.43;101458.59;5075413;28;20027;-87
2021/09/06 08:47:07;;;;;;;14.70;8.00;;;;;;;21.08;74.21;101458.78;5075933;28;20111;-87
2021/09/06 08:49:32;;;;;;;13.13;7.85;;;;;;;21.77;68.49;101458.06;5094284;28;20093;-86
2021/09/06 08:51:59;;;;;;;15.40;8.60;;;;;;;22.02;66.99;101459.44;5093403;28;20035;-86
2021/09/06 08:54:24;;;;;;;15.52;7.75;;;;;;;22.36;67.60;101455.91;5075461;28;20048;-86
2021/09/06 08:56:49;;;;;;;13.63;7.72;;;;;;;21.66;67.65;101459.53;5075188;28;20135;-86
2021/09/06 08:59:17;;;;;;;14.80;8.00;;;;;;;21.92;66.52;101453.78;5093302;28;20543;-87
2021/09/06 09:01:44;;;;;;;12.40;7.75;;;;;;;21.91;67.35;101459.97;5075285;28;20122;-87
2021/09/06 09:04:21;;;;;;;14.25;7.85;;;;;;;22.37;64.83;101456.75;5075234;28;20024;-87
2021/09/06 09:06:52;;;;;;;15.38;8.00;;;;;;;22.47;61.56;101452.69;5075298;28;20035;-88
2021/09/06 09:09:28;;;;;;;12.70;7.28;;;;;;;22.99;62.11;101460.44;5075139;28;20124;-87
2021/09/06 09:12:16;;;;;;;12.02;7.80;;;;;;;23.52;58.87;101458.31;5075120;28;20464;-87
2021/09/06 09:14:46;;;;;;;12.05;8.20;;;;;;;23.43;59.66;101457.06;5075139;28;20020;-88
2021/09/06 09:17:12;;;;;;;10.93;7.20;;;;;;;23.24;62.12;101469.63;5075372;28;20032;-88
2021/09/06 09:19:39;;;;;;;13.98;8.23;;;;;;;22.05;64.33;101464.56;5093154;28;20434;-87
2021/09/06 09:22:19;;;;;;;14.38;8.52;;;;;;;22.71;60.62;101471.66;5075084;28;20399;-88
2021/09/06 09:24:56;;;;;;;12.43;8.05;;;;;;;22.95;60.44;101462.41;5096045;28;20020;-88
2021/09/06 09:27:32;;;;;;;12.57;7.55;;;;;;;23.27;59.64;101472.13;5079066;28;20036;-88
2021/09/06 09:29:58;;;;;;;12.30;7.55;;;;;;;21.89;64.77;101468.91;5078804;28;20016;-88
2021/09/06 09:32:23;;;;;;;14.77;7.82;;;;;;;22.86;61.92;101469.97;5078840;28;20023;-88
2021/09/06 09:34:48;;;;;;;13.73;8.20;;;;;;;22.74;62.26;101471.50;5078733;28;20027;-87
2021/09/06 09:37:23;;;;;;;12.77;7.77;;;;;;;22.45;65.18;101462.50;5078836;28;20051;-87
2021/09/06 09:39:54;;;;;;;16.48;8.27;;;;;;;22.43;63.13;101461.72;5097621;28;20268;-87
2021/09/06 09:42:19;;;;;;;18.83;8.35;;;;;;;21.54;66.08;101466.25;5078800;28;20115;-87
2021/09/06 09:44:50;;;;;;;15.13;8.03;;;;;;;21.26;70.06;101464.94;5079099;28;20452;-87
2021/09/06 09:47:20;;;;;;;15.25;7.47;;;;;;;20.80;69.28;101459.22;5080207;28;20282;-87
2021/09/06 09:49:48;;;;;;;11.63;7.32;;;;;;;19.90;76.69;101461.44;5096833;28;20111;-87
2021/09/06 09:52:14;;;;;;;13.63;8.20;;;;;;;20.25;73.63;101453.78;5078652;28;20451;-87
2021/09/06 09:54:39;;;;;;;13.27;7.75;;;;;;;22.53;67.50;101457.63;5078943;28;20023;-88
2021/09/06 09:57:05;;;;;;;12.95;7.57;;;;;;;23.61;60.56;101452.47;5097983;28;20433;-88
2021/09/06 09:59:30;;;;;;;14.15;7.72;;;;;;;23.59;59.28;101441.13;5083988;28;20023;-87
2021/09/06 10:02:06;;;;;;;13.65;7.80;;;;;;;23.85;59.14;101444.91;5088180;28;20105;-87
2021/09/06 10:04:34;;;;;;;13.27;7.95;;;;;;;23.47;58.17;101440.06;5089607;28;20024;-87
2021/09/06 10:07:01;;;;;;;14.05;7.50;;;;;;;22.62;61.50;101445.72;5096683;28;20031;-88
2021/09/06 10:09:27;;;;;;;13.02;7.70;;;;;;;21.15;63.20;101444.38;5096442;28;20494;-88
2021/09/06 10:12:03;;;;;;;13.32;7.90;;;;;;;21.03;67.64;101444.09;5078261;28;20114;-88
2021/09/06 10:14:29;;;;;;;14.10;8.02;;;;;;;22.30;63.42;101437.75;5078327;28;20027;-88
2021/09/06 10:17:06;;;;;;;15.60;8.75;;;;;;;23.59;58.58;101434.03;5078117;28;20391;-88
2021/09/06 10:19:40;;;;;;;14.68;7.70;;;;;;;23.54;57.69;101433.44;5078063;28;20073;-88
2021/09/06 10:22:06;;;;;;;13.93;7.88;;;;;;;22.57;61.34;101438.03;5078105;28;20439;-88
2021/09/06 10:24:31;;;;;;;13.27;7.80;;;;;;;21.93;64.15;101431.72;5078040;28;20042;-88
2021/09/06 10:27:05;;;;;;;11.88;7.63;;;;;;;21.76;66.23;101432.56;5078372;28;20024;-88
2021/09/06 10:29:31;;;;;;;12.48;7.93;;;;;;;21.29;71.08;101432.28;5095999;28;20028;-88
2021/09/06 10:32:02;;;;;;;13.73;7.80;;;;;;;21.36;68.18;101436.34;5077820;28;20399;-88
2021/09/06 10:34:29;;;;;;;14.57;8.52;;;;;;;21.14;69.54;101436.53;5095629;28;20040;-88
2021/09/06 10:37:05;;;;;;;13.02;8.07;;;;;;;21.45;68.17;101440.31;5077772;28;20052;-88
2021/09/06 10:39:32;;;;;;;13.43;8.43;;;;;;;21.32;69.85;101434.78;5077845;28;20119;-88
2021/09/06 10:42:06;;;;;;;13.93;8.23;;;;;;;21.07;69.48;101440.38;5077608;28;20027;-87
2021/09/06 10:44:37;;;;;;;13.35;7.80;;;;;;;21.45;74.93;101435.03;5078223;28;20020;-88
2021/09/06 10:47:11;;;;;;;16.98;8.32;;;;;;;20.44;80.92;101443.28;5077673;28;20028;-88
2021/09/06 10:49:41;;;;;;;;;;;;;;;20.36;77.55;101437.50;5077730;28;20035;-88
2021/09/06 10:52:08;;;;;;;13.35;8.02;;;;;;;20.61;73.34;101437.28;5077328;28;19915;-88
2021/09/06 10:54:35;;;;;;;14.60;8.35;;;;;;;20.79;73.58;101438.22;5077226;28;20024;-88
2021/09/06 10:57:01;;;;;;;15.63;9.02;;;;;;;21.35;75.08;101430.22;5077224;28;20166;-88
2021/09/06 10:59:26;;;;;;;14.23;8.52;;;;;;;20.95;75.70;101433.06;5077549;28;20561;-88
2021/09/06 11:01:55;;;;;;;14.57;8.10;;;;;;;20.73;75.77;101430.59;5077065;28;20031;-87
2021/09/06 11:04:23;;;;;;;14.70;8.43;;;;;;;20.22;76.79;101438.13;5095172;28;20612;-87
2021/09/06 11:06:57;;;;;;;19.60;9.70;;;;;;;19.75;77.03;101435.78;5076961;28;20026;-87
2021/09/06 11:09:26;;;;;;;;;;;;;;;20.99;77.48;101431.97;5077437;28;20063;-87